createdAt,value
2018-07-19T00:00:54.740Z,4.00
2018-07-19T00:01:54.759Z,4.00
2018-07-19T00:02:54.771Z,4.00
2018-07-19T00:03:54.788Z,4.00
2018-07-19T00:04:54.803Z,4.00
2018-07-19T00:05:54.825Z,4.00
2018-07-19T00:06:54.898Z,4.00
2018-07-19T00:07:54.891Z,4.00
2018-07-19T00:08:54.871Z,4.00
2018-07-19T00:09:54.894Z,4.00
2018-07-19T00:10:54.900Z,4.00
2018-07-19T00:11:54.926Z,4.00
2018-07-19T00:12:54.939Z,4.00
2018-07-19T00:13:54.952Z,4.00
2018-07-19T00:14:54.967Z,4.00
2018-07-19T00:15:55.042Z,4.00
2018-07-19T00:16:55.001Z,4.00
2018-07-19T00:17:55.020Z,4.00
2018-07-19T00:18:55.094Z,4.00
2018-07-19T00:19:55.053Z,4.00
2018-07-19T00:20:55.064Z,4.00
2018-07-19T00:21:55.092Z,4.00
2018-07-19T00:22:55.100Z,4.00
2018-07-19T00:23:55.116Z,4.00
2018-07-19T00:24:55.188Z,4.00
2018-07-19T00:25:55.152Z,4.00
2018-07-19T00:26:55.170Z,4.00
2018-07-19T00:27:55.180Z,4.00
2018-07-19T00:28:55.200Z,4.00
2018-07-19T00:29:55.215Z,4.00
2018-07-19T00:30:55.237Z,4.00
2018-07-19T00:31:55.247Z,4.00
2018-07-19T00:32:55.267Z,4.00
2018-07-19T00:33:55.383Z,4.00
2018-07-19T00:34:55.301Z,4.00
2018-07-19T00:35:55.311Z,4.00
2018-07-19T00:36:55.335Z,4.00
2018-07-19T00:37:55.353Z,4.00
2018-07-19T00:38:55.370Z,4.00
2018-07-19T00:39:55.450Z,4.00
2018-07-19T00:40:55.402Z,4.00
2018-07-19T00:41:55.414Z,4.00
2018-07-19T00:42:55.430Z,4.00
2018-07-19T00:43:55.446Z,4.00
2018-07-19T00:44:55.466Z,4.00
2018-07-19T00:45:55.479Z,4.00
2018-07-19T00:46:55.494Z,4.00
2018-07-19T00:47:55.505Z,4.00
2018-07-19T00:48:55.578Z,4.00
2018-07-19T00:49:55.543Z,4.00
2018-07-19T00:50:55.561Z,4.00
2018-07-19T00:51:55.578Z,4.00
2018-07-19T00:52:55.588Z,4.00
2018-07-19T00:53:55.615Z,4.00
2018-07-19T00:54:55.676Z,4.00
2018-07-19T00:55:55.664Z,4.00
2018-07-19T00:56:55.661Z,4.00
2018-07-19T00:57:55.672Z,4.00
2018-07-19T00:58:55.690Z,4.00
2018-07-19T00:59:55.708Z,4.00
2018-07-19T01:00:55.729Z,4.00
2018-07-19T01:01:55.736Z,4.00
2018-07-19T01:02:55.756Z,4.00
2018-07-19T01:03:55.779Z,4.00
2018-07-19T01:04:55.787Z,4.00
2018-07-19T01:05:55.808Z,4.00
2018-07-19T01:06:55.824Z,4.00
2018-07-19T01:07:55.831Z,4.00
2018-07-19T01:08:55.856Z,4.00
2018-07-19T01:09:55.864Z,4.00
2018-07-19T01:10:55.884Z,4.00
2018-07-19T01:11:55.899Z,4.00
2018-07-19T01:12:55.922Z,4.00
2018-07-19T01:13:55.938Z,4.00
2018-07-19T01:14:55.948Z,4.00
2018-07-19T01:15:55.968Z,4.00
2018-07-19T01:16:55.983Z,4.00
2018-07-19T01:17:56.001Z,4.00
2018-07-19T01:18:56.023Z,4.00
2018-07-19T01:19:56.029Z,4.00
2018-07-19T01:20:56.052Z,4.00
2018-07-19T01:21:56.063Z,4.00
2018-07-19T01:22:56.083Z,4.00
2018-07-19T01:23:56.107Z,4.00
2018-07-19T01:24:56.167Z,4.00
2018-07-19T01:25:56.134Z,4.00
2018-07-19T01:26:56.143Z,4.00
2018-07-19T01:27:56.244Z,4.00
2018-07-19T01:28:56.170Z,4.00
2018-07-19T01:29:56.195Z,4.00
2018-07-19T01:30:56.219Z,4.00
2018-07-19T01:31:56.231Z,4.00
2018-07-19T01:32:56.247Z,4.00
2018-07-19T01:33:56.266Z,4.00
2018-07-19T01:34:56.273Z,4.00
2018-07-19T01:35:56.289Z,4.00
2018-07-19T01:36:56.305Z,4.00
2018-07-19T01:37:56.324Z,4.00
2018-07-19T01:38:56.337Z,4.00
2018-07-19T01:39:56.359Z,4.00
2018-07-19T01:40:56.373Z,4.00
2018-07-19T01:41:56.389Z,4.00
2018-07-19T01:42:56.400Z,4.00
2018-07-19T01:43:56.416Z,4.00
2018-07-19T01:44:56.431Z,4.00
2018-07-19T01:45:56.459Z,4.00
2018-07-19T01:46:56.471Z,4.00
2018-07-19T01:47:56.482Z,4.00
2018-07-19T01:48:56.505Z,4.00
2018-07-19T01:49:56.520Z,4.00
2018-07-19T01:50:56.559Z,4.00
2018-07-19T01:51:56.549Z,4.00
2018-07-19T01:52:56.570Z,4.00
2018-07-19T01:53:56.581Z,4.00
2018-07-19T01:54:56.600Z,4.00
2018-07-19T01:55:56.619Z,4.00
2018-07-19T01:56:56.633Z,4.00
2018-07-19T01:57:56.651Z,4.00
2018-07-19T01:58:56.670Z,4.00
2018-07-19T01:59:56.731Z,4.00
2018-07-19T02:00:56.756Z,4.00
2018-07-19T02:01:56.719Z,4.00
2018-07-19T02:02:56.769Z,4.00
2018-07-19T02:03:56.752Z,4.00
2018-07-19T02:04:56.761Z,4.00
2018-07-19T02:05:56.777Z,4.00
2018-07-19T02:06:56.799Z,4.00
2018-07-19T02:07:56.814Z,4.00
2018-07-19T02:08:56.849Z,4.00
2018-07-19T02:09:56.851Z,4.00
2018-07-19T02:10:56.857Z,4.00
2018-07-19T02:11:56.878Z,4.00
2018-07-19T02:12:56.898Z,4.00
2018-07-19T02:13:56.916Z,4.00
2018-07-19T02:14:56.932Z,4.00
2018-07-19T02:15:56.942Z,4.00
2018-07-19T02:16:56.958Z,4.00
2018-07-19T02:17:56.980Z,4.00
2018-07-19T02:18:56.998Z,4.00
2018-07-19T02:19:57.013Z,4.00
2018-07-19T02:20:57.026Z,4.00
2018-07-19T02:21:57.048Z,4.00
2018-07-19T02:22:57.054Z,4.00
2018-07-19T02:23:57.081Z,4.00
2018-07-19T02:24:57.144Z,4.00
2018-07-19T02:25:57.116Z,4.00
2018-07-19T02:26:57.122Z,4.00
2018-07-19T02:27:57.138Z,4.00
2018-07-19T02:28:57.154Z,4.00
2018-07-19T02:29:57.185Z,4.00
2018-07-19T02:30:57.191Z,4.00
2018-07-19T02:31:57.204Z,4.00
2018-07-19T02:32:57.222Z,4.00
2018-07-19T02:33:57.241Z,4.00
2018-07-19T02:34:57.250Z,4.00
2018-07-19T02:35:57.267Z,4.00
2018-07-19T02:36:57.286Z,4.00
2018-07-19T02:37:57.298Z,4.00
2018-07-19T02:38:57.314Z,4.00
2018-07-19T02:39:57.340Z,4.00
2018-07-19T02:40:57.351Z,4.00
2018-07-19T02:41:57.372Z,4.00
2018-07-19T02:42:57.393Z,4.00
2018-07-19T02:43:57.488Z,4.00
2018-07-19T02:44:57.418Z,4.00
2018-07-19T02:45:57.436Z,4.00
2018-07-19T02:46:57.450Z,4.00
2018-07-19T02:47:57.467Z,4.00
2018-07-19T02:48:57.484Z,4.00
2018-07-19T02:49:57.512Z,4.00
2018-07-19T02:50:57.518Z,4.00
2018-07-19T02:51:57.542Z,4.00
2018-07-19T02:52:57.550Z,4.00
2018-07-19T02:53:57.568Z,4.00
2018-07-19T02:54:57.589Z,4.00
2018-07-19T02:55:57.599Z,4.00
2018-07-19T02:56:57.629Z,4.00
2018-07-19T02:57:57.646Z,4.00
2018-07-19T02:58:57.657Z,4.00
2018-07-19T02:59:57.665Z,4.00
2018-07-19T03:02:05.467Z,4.00
2018-07-19T03:02:57.742Z,4.00
2018-07-19T03:03:57.727Z,4.00
2018-07-19T03:04:57.741Z,4.00
2018-07-19T03:05:57.766Z,4.00
2018-07-19T03:06:57.775Z,4.00
2018-07-19T03:07:57.836Z,4.00
2018-07-19T03:08:57.833Z,4.00
2018-07-19T03:09:57.825Z,4.00
2018-07-19T03:10:57.846Z,4.00
2018-07-19T03:11:57.855Z,4.00
2018-07-19T03:12:57.871Z,4.00
2018-07-19T03:13:57.897Z,4.00
2018-07-19T03:14:57.939Z,4.00
2018-07-19T03:15:57.937Z,4.00
2018-07-19T03:16:57.944Z,4.00
2018-07-19T03:17:57.955Z,4.00
2018-07-19T03:18:57.971Z,4.00
2018-07-19T03:19:57.994Z,4.00
2018-07-19T03:20:58.033Z,4.00
2018-07-19T03:21:58.022Z,4.00
2018-07-19T03:22:58.035Z,4.00
2018-07-19T03:23:58.057Z,4.00
2018-07-19T03:24:58.071Z,4.00
2018-07-19T03:25:58.093Z,4.00
2018-07-19T03:26:58.103Z,4.00
2018-07-19T03:27:58.117Z,4.00
2018-07-19T03:28:58.138Z,4.00
2018-07-19T03:29:58.154Z,4.00
2018-07-19T03:30:58.190Z,4.00
2018-07-19T03:31:58.191Z,4.00
2018-07-19T03:32:58.206Z,4.00
2018-07-19T03:33:58.215Z,4.00
2018-07-19T03:34:58.237Z,4.00
2018-07-19T03:35:58.254Z,4.00
2018-07-19T03:36:58.269Z,4.00
2018-07-19T03:37:58.292Z,4.00
2018-07-19T03:38:58.316Z,4.00
2018-07-19T03:39:58.338Z,4.00
2018-07-19T03:40:58.329Z,4.00
2018-07-19T03:41:58.350Z,4.00
2018-07-19T03:42:58.369Z,4.00
2018-07-19T03:43:58.379Z,4.00
2018-07-19T03:44:58.436Z,4.00
2018-07-19T03:45:58.422Z,4.00
2018-07-19T03:46:58.428Z,4.00
2018-07-19T03:47:58.453Z,4.00
2018-07-19T03:48:58.470Z,4.00
2018-07-19T03:49:58.486Z,4.00
2018-07-19T03:50:58.496Z,4.00
2018-07-19T03:51:58.515Z,4.00
2018-07-19T03:52:58.534Z,4.00
2018-07-19T03:53:58.546Z,4.00
2018-07-19T03:54:58.563Z,4.00
2018-07-19T03:55:58.592Z,4.00
2018-07-19T03:56:58.594Z,4.00
2018-07-19T03:57:58.613Z,4.00
2018-07-19T03:58:58.633Z,4.00
2018-07-19T03:59:58.648Z,4.00
2018-07-19T04:00:58.667Z,4.00
2018-07-19T04:01:58.809Z,4.00
2018-07-19T04:02:58.693Z,4.00
2018-07-19T04:03:58.712Z,4.00
2018-07-19T04:04:58.734Z,4.00
2018-07-19T04:05:58.747Z,4.00
2018-07-19T04:06:58.772Z,4.00
2018-07-19T04:07:58.777Z,4.00
2018-07-19T04:08:58.795Z,4.00
2018-07-19T04:09:58.814Z,4.00
2018-07-19T04:10:58.832Z,4.00
2018-07-19T04:11:58.850Z,4.00
2018-07-19T04:12:58.875Z,4.00
2018-07-19T04:13:58.884Z,4.00
2018-07-19T04:14:58.892Z,4.00
2018-07-19T04:15:58.912Z,4.00
2018-07-19T04:16:58.974Z,4.00
2018-07-19T04:17:58.941Z,4.00
2018-07-19T04:18:59.001Z,4.00
2018-07-19T04:19:58.977Z,4.00
2018-07-19T04:20:58.991Z,4.00
2018-07-19T04:21:59.011Z,4.00
2018-07-19T04:22:59.024Z,4.00
2018-07-19T04:23:59.041Z,4.00
2018-07-19T04:24:59.093Z,4.00
2018-07-19T04:25:59.083Z,4.00
2018-07-19T04:26:59.089Z,4.00
2018-07-19T04:27:59.111Z,4.00
2018-07-19T04:28:59.120Z,4.00
2018-07-19T04:29:59.153Z,4.00
2018-07-19T04:30:59.237Z,4.00
2018-07-19T04:31:59.173Z,4.00
2018-07-19T04:32:59.195Z,4.00
2018-07-19T04:33:59.213Z,4.00
2018-07-19T04:34:59.227Z,4.00
2018-07-19T04:35:59.243Z,4.00
2018-07-19T04:36:59.318Z,4.00
2018-07-19T04:37:59.276Z,4.00
2018-07-19T04:38:59.296Z,4.00
2018-07-19T04:39:59.320Z,4.00
2018-07-19T04:40:59.338Z,4.00
2018-07-19T04:41:59.343Z,4.00
2018-07-19T04:42:59.437Z,4.00
2018-07-19T04:43:59.375Z,4.00
2018-07-19T04:44:59.389Z,4.00
2018-07-19T04:45:59.419Z,4.00
2018-07-19T04:46:59.428Z,4.00
2018-07-19T04:47:59.443Z,4.00
2018-07-19T04:48:59.517Z,4.00
2018-07-19T04:49:59.475Z,4.00
2018-07-19T04:50:59.488Z,4.00
2018-07-19T04:51:59.513Z,0.00
2018-07-19T04:52:59.522Z,0.00
2018-07-19T04:53:59.543Z,0.00
2018-07-19T04:54:59.602Z,0.00
2018-07-19T04:55:59.578Z,0.00
2018-07-19T04:56:59.596Z,0.00
2018-07-19T04:57:59.611Z,0.00
2018-07-19T04:58:59.624Z,0.00
2018-07-19T04:59:59.641Z,4.00
2018-07-19T05:00:59.661Z,4.00
2018-07-19T05:01:59.686Z,4.00
2018-07-19T05:02:59.685Z,4.00
2018-07-19T05:03:59.698Z,0.00
2018-07-19T05:04:59.724Z,4.00
2018-07-19T05:05:59.748Z,4.00
2018-07-19T05:06:59.764Z,4.00
2018-07-19T05:07:59.774Z,4.00
2018-07-19T05:08:59.789Z,8.00
2018-07-19T05:09:59.801Z,8.00
2018-07-19T05:10:59.821Z,8.00
2018-07-19T05:11:59.837Z,8.00
2018-07-19T05:12:59.919Z,12.00
2018-07-19T05:13:59.890Z,12.00
2018-07-19T05:14:59.885Z,16.00
2018-07-19T05:15:59.909Z,16.00
2018-07-19T05:16:59.915Z,20.00
2018-07-19T05:17:59.939Z,20.00
2018-07-19T05:18:59.953Z,24.00
2018-07-19T05:19:59.970Z,28.00
2018-07-19T05:20:59.997Z,32.00
2018-07-19T05:22:00.001Z,36.00
2018-07-19T05:23:00.021Z,40.00
2018-07-19T05:24:00.037Z,40.00
2018-07-19T05:25:00.098Z,44.00
2018-07-19T05:26:00.072Z,40.00
2018-07-19T05:27:00.087Z,40.00
2018-07-19T05:28:00.113Z,40.00
2018-07-19T05:29:00.122Z,52.00
2018-07-19T05:30:00.140Z,60.00
2018-07-19T05:31:00.215Z,68.00
2018-07-19T05:32:00.177Z,72.00
2018-07-19T05:33:00.191Z,68.00
2018-07-19T05:34:00.210Z,76.00
2018-07-19T05:35:00.229Z,88.00
2018-07-19T05:36:00.254Z,96.00
2018-07-19T05:37:00.275Z,112.00
2018-07-19T05:38:00.270Z,128.00
2018-07-19T05:39:00.295Z,140.00
2018-07-19T05:40:00.302Z,156.00
2018-07-19T05:41:00.319Z,168.00
2018-07-19T05:42:00.338Z,176.00
2018-07-19T05:43:00.351Z,184.00
2018-07-19T05:44:00.369Z,200.00
2018-07-19T05:45:00.393Z,212.00
2018-07-19T05:46:00.409Z,224.00
2018-07-19T05:47:00.426Z,236.00
2018-07-19T05:48:00.439Z,240.00
2018-07-19T05:49:00.452Z,252.00
2018-07-19T05:50:00.510Z,272.00
2018-07-19T05:51:00.491Z,320.00
2018-07-19T05:52:00.510Z,372.00
2018-07-19T05:53:00.521Z,420.00
2018-07-19T05:54:00.536Z,448.00
2018-07-19T05:55:00.558Z,440.00
2018-07-19T05:56:00.573Z,428.00
2018-07-19T05:57:00.583Z,448.00
2018-07-19T05:58:00.610Z,460.00
2018-07-19T05:59:00.633Z,468.00
2018-07-19T06:00:00.639Z,448.00
2018-07-19T06:01:00.662Z,444.00
2018-07-19T06:02:00.673Z,444.00
2018-07-19T06:03:00.687Z,488.00
2018-07-19T06:04:00.710Z,536.00
2018-07-19T06:05:00.719Z,552.00
2018-07-19T06:06:00.740Z,508.00
2018-07-19T06:07:00.751Z,456.00
2018-07-19T06:08:00.772Z,428.00
2018-07-19T06:09:00.785Z,420.00
2018-07-19T06:10:00.810Z,404.00
2018-07-19T06:11:00.822Z,384.00
2018-07-19T06:12:00.832Z,368.00
2018-07-19T06:13:00.855Z,376.00
2018-07-19T06:14:00.871Z,392.00
2018-07-19T06:15:00.889Z,416.00
2018-07-19T06:16:00.919Z,440.00
2018-07-19T06:17:00.915Z,448.00
2018-07-19T06:18:00.943Z,460.00
2018-07-19T06:19:00.956Z,504.00
2018-07-19T06:20:00.972Z,556.00
2018-07-19T06:21:00.984Z,584.00
2018-07-19T06:22:01.006Z,584.00
2018-07-19T06:23:01.020Z,568.00
2018-07-19T06:24:01.036Z,576.00
2018-07-19T06:25:01.069Z,636.00
2018-07-19T06:26:01.072Z,732.00
2018-07-19T06:27:01.091Z,796.00
2018-07-19T06:28:01.106Z,804.00
2018-07-19T06:29:01.127Z,804.00
2018-07-19T06:30:01.147Z,836.00
2018-07-19T06:31:01.156Z,912.00
2018-07-19T06:32:01.168Z,1076.00
2018-07-19T06:33:01.188Z,1132.00
2018-07-19T06:34:01.207Z,1112.00
2018-07-19T06:35:01.220Z,1056.00
2018-07-19T06:36:01.240Z,992.00
2018-07-19T06:37:01.251Z,992.00
2018-07-19T06:38:01.266Z,1200.00
2018-07-19T06:39:01.291Z,1372.00
2018-07-19T06:40:01.308Z,1588.00
2018-07-19T06:41:01.325Z,1876.00
2018-07-19T06:42:01.347Z,1712.00
2018-07-19T06:43:01.383Z,1532.00
2018-07-19T06:44:01.375Z,1852.00
2018-07-19T06:45:01.388Z,1352.00
2018-07-19T06:46:01.412Z,1272.00
2018-07-19T06:47:01.424Z,1320.00
2018-07-19T06:48:01.440Z,1268.00
2018-07-19T06:49:01.485Z,1364.00
2018-07-19T06:50:01.477Z,1588.00
2018-07-19T06:51:01.492Z,1792.00
2018-07-19T06:52:01.511Z,1944.00
2018-07-19T06:53:01.525Z,4500.00
2018-07-19T06:54:01.546Z,4160.00
2018-07-19T06:55:01.561Z,2652.00
2018-07-19T06:56:01.579Z,2556.00
2018-07-19T06:57:01.596Z,2168.00
2018-07-19T06:58:01.620Z,1972.00
2018-07-19T06:59:01.636Z,2252.00
2018-07-19T07:00:01.651Z,2052.00
2018-07-19T07:01:01.674Z,1784.00
2018-07-19T07:02:01.683Z,1796.00
2018-07-19T07:03:01.692Z,1744.00
2018-07-19T07:04:01.711Z,1720.00
2018-07-19T07:05:01.729Z,1688.00
2018-07-19T07:06:01.745Z,1876.00
2018-07-19T07:07:01.766Z,2300.00
2018-07-19T07:08:01.779Z,1768.00
2018-07-19T07:09:01.899Z,1708.00
2018-07-19T07:10:01.817Z,1760.00
2018-07-19T07:11:01.834Z,1732.00
2018-07-19T07:12:01.849Z,1792.00
2018-07-19T07:13:01.871Z,2116.00
2018-07-19T07:14:01.890Z,2568.00
2018-07-19T07:15:01.958Z,2652.00
2018-07-19T07:16:01.919Z,2788.00
2018-07-19T07:17:01.938Z,3120.00
2018-07-19T07:18:01.953Z,5508.00
2018-07-19T07:19:01.979Z,2880.00
2018-07-19T07:20:01.987Z,2304.00
2018-07-19T07:21:02.003Z,2152.00
2018-07-19T07:22:02.036Z,2048.00
2018-07-19T07:23:02.041Z,2140.00
2018-07-19T07:24:02.052Z,2180.00
2018-07-19T07:25:02.077Z,2172.00
2018-07-19T07:26:02.088Z,2292.00
2018-07-19T07:27:02.113Z,3368.00
2018-07-19T07:28:02.127Z,2220.00
2018-07-19T07:29:02.189Z,2372.00
2018-07-19T07:30:02.172Z,2408.00
2018-07-19T07:31:02.204Z,2432.00
2018-07-19T07:32:02.200Z,2568.00
2018-07-19T07:33:02.210Z,2504.00
2018-07-19T07:34:02.233Z,2644.00
2018-07-19T07:35:02.240Z,2720.00
2018-07-19T07:36:02.262Z,2836.00
2018-07-19T07:37:02.303Z,2700.00
2018-07-19T07:38:02.294Z,2676.00
2018-07-19T07:39:02.367Z,2880.00
2018-07-19T07:40:02.334Z,2932.00
2018-07-19T07:41:02.350Z,2664.00
2018-07-19T07:42:02.374Z,2904.00
2018-07-19T07:43:02.395Z,3212.00
2018-07-19T07:44:02.440Z,3344.00
2018-07-19T07:45:02.423Z,9104.00
2018-07-19T07:46:02.429Z,3848.00
2018-07-19T07:47:02.457Z,3708.00
2018-07-19T07:48:02.476Z,3364.00
2018-07-19T07:49:02.487Z,3204.00
2018-07-19T07:50:02.504Z,3152.00
2018-07-19T07:51:02.521Z,3592.00
2018-07-19T07:52:02.544Z,3728.00
2018-07-19T07:53:02.570Z,4464.00
2018-07-19T07:54:02.573Z,4596.00
2018-07-19T07:55:02.599Z,10520.00
2018-07-19T07:56:02.608Z,9812.00
2018-07-19T07:57:02.636Z,5064.00
2018-07-19T07:58:02.653Z,9792.00
2018-07-19T07:59:02.669Z,9344.00
2018-07-19T08:00:02.684Z,3764.00
2018-07-19T08:01:02.700Z,3392.00
2018-07-19T08:02:02.717Z,3088.00
2018-07-19T08:03:02.739Z,3556.00
2018-07-19T08:04:02.749Z,6176.00
2018-07-19T08:05:02.770Z,3068.00
2018-07-19T08:06:02.791Z,7356.00
2018-07-19T08:07:02.811Z,4148.00
2018-07-19T08:08:02.827Z,4000.00
2018-07-19T08:09:02.892Z,9800.00
2018-07-19T08:10:02.858Z,9580.00
2018-07-19T08:11:02.883Z,10284.00
2018-07-19T08:12:02.900Z,9040.00
2018-07-19T08:13:02.923Z,3616.00
2018-07-19T08:14:02.932Z,6620.00
2018-07-19T08:15:02.960Z,11968.00
2018-07-19T08:16:02.982Z,4232.00
2018-07-19T08:17:02.995Z,4040.00
2018-07-19T08:18:03.004Z,11360.00
2018-07-19T08:19:03.025Z,4244.00
2018-07-19T08:20:03.044Z,4340.00
2018-07-19T08:21:03.066Z,5164.00
2018-07-19T08:22:03.081Z,12604.00
2018-07-19T08:23:03.107Z,5884.00
2018-07-19T08:24:03.121Z,8228.00
2018-07-19T08:25:03.146Z,4308.00
2018-07-19T08:26:03.157Z,4012.00
2018-07-19T08:27:03.181Z,4104.00
2018-07-19T08:28:03.188Z,6420.00
2018-07-19T08:29:03.274Z,5312.00
2018-07-19T08:30:03.240Z,4332.00
2018-07-19T08:31:03.245Z,3880.00
2018-07-19T08:32:03.269Z,3752.00
2018-07-19T08:33:03.290Z,4072.00
2018-07-19T08:34:03.315Z,4228.00
2018-07-19T08:35:03.326Z,4388.00
2018-07-19T08:36:03.408Z,4668.00
2018-07-19T08:37:03.363Z,4680.00
2018-07-19T08:38:03.381Z,5708.00
2018-07-19T08:39:03.403Z,8296.00
2018-07-19T08:40:03.416Z,13116.00
2018-07-19T08:41:03.446Z,6276.00
2018-07-19T08:42:03.464Z,11932.00
2018-07-19T08:43:03.477Z,12052.00
2018-07-19T08:44:03.531Z,12692.00
2018-07-19T08:45:03.515Z,9848.00
2018-07-19T08:46:03.530Z,8148.00
2018-07-19T08:47:03.547Z,6108.00
2018-07-19T08:48:03.571Z,9188.00
2018-07-19T08:49:03.594Z,6028.00
2018-07-19T08:50:03.652Z,6272.00
2018-07-19T08:51:03.630Z,4744.00
2018-07-19T08:52:03.648Z,4020.00
2018-07-19T08:53:03.670Z,3508.00
2018-07-19T08:54:03.689Z,3284.00
2018-07-19T08:55:03.738Z,3172.00
2018-07-19T08:56:03.752Z,3208.00
2018-07-19T08:57:03.744Z,3372.00
2018-07-19T08:58:03.771Z,3724.00
2018-07-19T08:59:03.788Z,4396.00
2018-07-19T09:00:03.803Z,13868.00
2018-07-19T09:01:03.828Z,12420.00
2018-07-19T09:02:03.852Z,5616.00
2018-07-19T09:03:03.867Z,9500.00
2018-07-19T09:04:03.875Z,9812.00
2018-07-19T09:05:03.907Z,5412.00
2018-07-19T09:06:03.923Z,4312.00
2018-07-19T09:07:03.990Z,4036.00
2018-07-19T09:08:03.957Z,4204.00
2018-07-19T09:09:03.980Z,4388.00
2018-07-19T09:10:04.004Z,4884.00
2018-07-19T09:11:04.020Z,4584.00
2018-07-19T09:12:04.036Z,4680.00
2018-07-19T09:13:04.111Z,4852.00
2018-07-19T09:14:04.118Z,14104.00
2018-07-19T09:15:04.156Z,4532.00
2018-07-19T09:16:04.116Z,3984.00
2018-07-19T09:17:04.130Z,3952.00
2018-07-19T09:18:04.155Z,4040.00
2018-07-19T09:19:04.223Z,4192.00
2018-07-19T09:20:04.191Z,4348.00
2018-07-19T09:21:04.245Z,5656.00
2018-07-19T09:22:04.225Z,5368.00
2018-07-19T09:23:04.244Z,6604.00
2018-07-19T09:24:04.263Z,14784.00
2018-07-19T09:25:04.283Z,15616.00
2018-07-19T09:26:04.312Z,15328.00
2018-07-19T09:27:04.329Z,12880.00
2018-07-19T09:28:04.344Z,11640.00
2018-07-19T09:29:04.364Z,9260.00
2018-07-19T09:30:04.387Z,12756.00
2018-07-19T09:31:04.455Z,9476.00
2018-07-19T09:32:04.416Z,6536.00
2018-07-19T09:33:04.526Z,6032.00
2018-07-19T09:34:04.459Z,6916.00
2018-07-19T09:35:04.479Z,8284.00
2018-07-19T09:36:04.499Z,7444.00
2018-07-19T09:37:04.573Z,8188.00
2018-07-19T09:38:04.538Z,6120.00
2018-07-19T09:39:04.578Z,5300.00
2018-07-19T09:40:04.579Z,4856.00
2018-07-19T09:41:04.588Z,4628.00
2018-07-19T09:42:04.619Z,4612.00
2018-07-19T09:43:04.636Z,4852.00
2018-07-19T09:44:04.649Z,4736.00
2018-07-19T09:45:04.698Z,4772.00
2018-07-19T09:46:04.691Z,4916.00
2018-07-19T09:47:04.711Z,6028.00
2018-07-19T09:48:04.735Z,4928.00
2018-07-19T09:49:04.805Z,4988.00
2018-07-19T09:50:04.773Z,5100.00
2018-07-19T09:51:04.840Z,5348.00
2018-07-19T09:52:04.815Z,6196.00
2018-07-19T09:53:04.829Z,5972.00
2018-07-19T09:54:04.851Z,5704.00
2018-07-19T09:55:04.878Z,5416.00
2018-07-19T09:56:04.892Z,11156.00
2018-07-19T09:57:04.935Z,6092.00
2018-07-19T09:58:04.927Z,10956.00
2018-07-19T09:59:04.949Z,17184.00
2018-07-19T10:00:04.965Z,9060.00
2018-07-19T10:01:05.038Z,8204.00
2018-07-19T10:02:05.003Z,6520.00
2018-07-19T10:03:05.062Z,5796.00
2018-07-19T10:04:05.043Z,5696.00
2018-07-19T10:05:05.067Z,15040.00
2018-07-19T10:06:05.092Z,6636.00
2018-07-19T10:07:05.156Z,6300.00
2018-07-19T10:08:05.126Z,8156.00
2018-07-19T10:09:05.147Z,7904.00
2018-07-19T10:10:05.239Z,6576.00
2018-07-19T10:11:05.187Z,5812.00
2018-07-19T10:12:05.211Z,5424.00
2018-07-19T10:13:05.230Z,5412.00
2018-07-19T10:14:05.254Z,6380.00
2018-07-19T10:15:05.274Z,16704.00
2018-07-19T10:16:05.282Z,18080.00
2018-07-19T10:17:05.309Z,7672.00
2018-07-19T10:18:05.316Z,5780.00
2018-07-19T10:19:05.337Z,5412.00
2018-07-19T10:20:05.362Z,5312.00
2018-07-19T10:21:05.380Z,5372.00
2018-07-19T10:22:05.400Z,4852.00
2018-07-19T10:23:05.422Z,16928.00
2018-07-19T10:24:05.439Z,16256.00
2018-07-19T10:25:05.511Z,16512.00
2018-07-19T10:26:05.476Z,12396.00
2018-07-19T10:27:05.517Z,6580.00
2018-07-19T10:28:05.521Z,5948.00
2018-07-19T10:29:05.546Z,14072.00
2018-07-19T10:30:05.567Z,10640.00
2018-07-19T10:31:05.581Z,6328.00
2018-07-19T10:32:05.721Z,8540.00
2018-07-19T10:33:05.651Z,7288.00
2018-07-19T10:34:05.676Z,6936.00
2018-07-19T10:35:05.667Z,6832.00
2018-07-19T10:36:05.681Z,6948.00
2018-07-19T10:37:05.710Z,6660.00
2018-07-19T10:38:05.720Z,6348.00
2018-07-19T10:39:05.805Z,6752.00
2018-07-19T10:40:05.766Z,6676.00
2018-07-19T10:41:05.784Z,8184.00
2018-07-19T10:42:05.805Z,9656.00
2018-07-19T10:43:06.019Z,12168.00
2018-07-19T10:44:05.848Z,6808.00
2018-07-19T10:45:05.874Z,7148.00
2018-07-19T10:46:05.920Z,17056.00
2018-07-19T10:47:05.933Z,6476.00
2018-07-19T10:48:05.938Z,6092.00
2018-07-19T10:49:05.948Z,6512.00
2018-07-19T10:50:05.967Z,6240.00
2018-07-19T10:51:05.988Z,6952.00
2018-07-19T10:52:06.015Z,11592.00
2018-07-19T10:53:06.050Z,17632.00
2018-07-19T10:54:06.051Z,18176.00
2018-07-19T10:55:06.071Z,19104.00
2018-07-19T10:56:06.088Z,12760.00
2018-07-19T10:57:06.166Z,10020.00
2018-07-19T10:58:06.192Z,6900.00
2018-07-19T10:59:06.158Z,6836.00
2018-07-19T11:00:06.182Z,8448.00
2018-07-19T11:01:06.189Z,9724.00
2018-07-19T11:02:06.220Z,6164.00
2018-07-19T11:03:06.245Z,6604.00
2018-07-19T11:04:06.257Z,17248.00
2018-07-19T11:05:06.286Z,18848.00
2018-07-19T11:06:06.306Z,18304.00
2018-07-19T11:07:06.322Z,18240.00
2018-07-19T11:08:06.345Z,18240.00
2018-07-19T11:09:06.365Z,18304.00
2018-07-19T11:10:06.388Z,9128.00
2018-07-19T11:11:06.400Z,17568.00
2018-07-19T11:12:06.420Z,17632.00
2018-07-19T11:13:06.514Z,17600.00
2018-07-19T11:14:06.467Z,17536.00
2018-07-19T11:15:06.488Z,17536.00
2018-07-19T11:16:06.581Z,17984.00
2018-07-19T11:17:06.534Z,18240.00
2018-07-19T11:18:06.561Z,16160.00
2018-07-19T11:19:06.576Z,17632.00
2018-07-19T11:20:06.603Z,17824.00
2018-07-19T11:21:06.621Z,13024.00
2018-07-19T11:22:06.667Z,8156.00
2018-07-19T11:23:06.665Z,18368.00
2018-07-19T11:24:06.697Z,18784.00
2018-07-19T11:25:06.712Z,16128.00
2018-07-19T11:26:06.732Z,19104.00
2018-07-19T11:27:06.766Z,19808.00
2018-07-19T11:28:06.789Z,5980.00
2018-07-19T11:29:06.806Z,18144.00
2018-07-19T11:30:06.824Z,17632.00
2018-07-19T11:31:06.855Z,17696.00
2018-07-19T11:32:06.863Z,17792.00
2018-07-19T11:33:06.894Z,15392.00
2018-07-19T11:34:06.918Z,10188.00
2018-07-19T11:35:06.950Z,18624.00
2018-07-19T11:36:06.963Z,18976.00
2018-07-19T11:37:06.986Z,7148.00
2018-07-19T11:38:07.006Z,7660.00
2018-07-19T11:39:07.040Z,7020.00
2018-07-19T11:40:07.051Z,10128.00
2018-07-19T11:41:07.079Z,6488.00
2018-07-19T11:42:07.103Z,7048.00
2018-07-19T11:43:07.120Z,17920.00
2018-07-19T11:44:07.140Z,19328.00
2018-07-19T11:45:07.171Z,13004.00
2018-07-19T11:46:07.232Z,20672.00
2018-07-19T11:47:07.218Z,7372.00
2018-07-19T11:48:07.234Z,7844.00
2018-07-19T11:49:07.255Z,18976.00
2018-07-19T11:50:07.279Z,19136.00
2018-07-19T11:51:07.304Z,18784.00
2018-07-19T11:52:07.343Z,18880.00
2018-07-19T11:53:07.353Z,18560.00
2018-07-19T11:54:07.374Z,18432.00
2018-07-19T11:55:07.440Z,18464.00
2018-07-19T11:56:07.418Z,18592.00
2018-07-19T11:57:07.438Z,18944.00
2018-07-19T11:58:07.548Z,17792.00
2018-07-19T11:59:07.484Z,7424.00
2018-07-19T12:00:07.504Z,16256.00
2018-07-19T12:01:07.534Z,9044.00
2018-07-19T12:02:07.552Z,8172.00
2018-07-19T12:03:07.580Z,10000.00
2018-07-19T12:04:07.596Z,13140.00
2018-07-19T12:05:07.625Z,11360.00
2018-07-19T12:06:07.648Z,10316.00
2018-07-19T12:07:07.674Z,17536.00
2018-07-19T12:08:07.692Z,17280.00
2018-07-19T12:09:07.716Z,17408.00
2018-07-19T12:10:07.788Z,17952.00
2018-07-19T12:11:07.763Z,7972.00
2018-07-19T12:12:07.779Z,7968.00
2018-07-19T12:13:07.808Z,17440.00
2018-07-19T12:14:07.826Z,12984.00
2018-07-19T12:15:07.856Z,17728.00
2018-07-19T12:16:07.878Z,17888.00
2018-07-19T12:17:07.895Z,17696.00
2018-07-19T12:18:07.969Z,17472.00
2018-07-19T12:19:07.944Z,17536.00
2018-07-19T12:20:07.967Z,17504.00
2018-07-19T12:21:07.995Z,17472.00
2018-07-19T12:22:08.076Z,17632.00
2018-07-19T12:23:08.043Z,16032.00
2018-07-19T12:24:08.071Z,8448.00
2018-07-19T12:25:08.089Z,9828.00
2018-07-19T12:26:08.110Z,14088.00
2018-07-19T12:27:08.140Z,15424.00
2018-07-19T12:28:08.158Z,14536.00
2018-07-19T12:29:08.181Z,17120.00
2018-07-19T12:30:08.203Z,17600.00
2018-07-19T12:31:08.322Z,17536.00
2018-07-19T12:32:08.248Z,12004.00
2018-07-19T12:33:08.278Z,13124.00
2018-07-19T12:34:08.302Z,18848.00
2018-07-19T12:35:08.325Z,10832.00